x

8551762 - Delaware City, De (deld1) Weather Station

4:54pm - Tue 16th Oct 2018 All times are EDT. -4 hours from GMT.

  • Wind
    3mph, 8mph gusts
  • Sea Temp 60°f
  • Air Temp 57°f
  • Sea Pressure 1019.7mb
  • 8551762 - Delaware City, De
  • 8551762 - Delaware City, De

More Historic Weather Station data

Upgrade to MSW Pro to gain access to the past 30 days of data for over 8000 Wavebouys and Weather Stations around the globe.

Join

Comparision Forecast

View Surf forecast
   
Tue 10/16 4:54pm 3 8 mph 1019.7mb 60f 57f
4:48pm 3 9 mph 1019.5mb 60f 57f
4:42pm 6 8 mph 1019.6mb 60f 57f
4:36pm 5 9 mph 1019.6mb 60f 57f
4:30pm 3 8 mph 1019.6mb 60f 57f
4:24pm 6 9 mph 1019.6mb 60f 57f
4:18pm 5 7 mph 1019.3mb 60f 57f
4:12pm 5 8 mph 1019.3mb 60f 57f
4:06pm 6 9 mph 1019.2mb 60f 57f
4:00pm 3 7 mph 1019.2mb 60f 57f
3:54pm 7 10 mph 1019.4mb 60f 57f
3:48pm 5 9 mph 1019.6mb 60f 57f
3:42pm 6 9 mph 1019.7mb 60f 57f
3:36pm 8 10 mph 1019.8mb 60f 57f
3:30pm 7 11 mph 1019.6mb 60f 57f
3:24pm 5 10 mph 1019.6mb 61f 57f
3:18pm 7 10 mph 1019.7mb 61f 57f
3:12pm 7 11 mph 1019.8mb 61f 57f
3:06pm 9 13 mph 1019.9mb 61f 57f
3:00pm 8 13 mph 1019.9mb 61f 56f
2:54pm 6 9 mph 1020.2mb 61f 57f
2:48pm 7 10 mph 1020.1mb 61f 56f
2:42pm 8 11 mph 1020.2mb 61f 56f
2:36pm 7 11 mph 1020.3mb 61f 56f
2:30pm 5 14 mph 1020.3mb 61f 57f
2:24pm 8 13 mph 1020.4mb 61f 56f
2:18pm 6 11 mph 1020.5mb 61f 56f
2:12pm 7 10 mph 1020.8mb 61f 56f
2:06pm 8 14 mph 1020.8mb 61f 56f
2:00pm 7 15 mph 1020.8mb 61f 56f
1:54pm 8 15 mph 1020.7mb 60f 56f
1:48pm 6 14 mph 1020.8mb 61f 56f
1:42pm 9 11 mph 1020.9mb 60f 55f
1:36pm 7 13 mph 1021mb 60f 55f
1:30pm 7 11 mph 1021.1mb 60f 55f
1:24pm 10 14 mph 1021.3mb 60f 55f
1:18pm 5 10 mph 1021.4mb 60f 55f
1:12pm 11 16 mph 1021.7mb 60f 55f
1:06pm 10 14 mph 1021.8mb 60f 55f
1:00pm 5 13 mph 1021.7mb 60f 55f
12:18pm 9 15 mph 1022.6mb 60f 54f
12:12pm 9 13 mph 1022.6mb 60f 54f
12:06pm 6 13 mph 1022.5mb 60f 54f
12:00pm 13 17 mph 1022.8mb 60f 54f
11:54am 8 15 mph 1022.6mb 60f 54f
11:48am 9 15 mph 1022.6mb 60f 54f
11:42am 9 14 mph 1022.5mb 60f 53f
11:36am 10 16 mph 1022.6mb 60f 53f
11:30am 7 14 mph 1022.7mb 60f 54f
11:24am 8 13 mph 1022.8mb 59f 54f
11:18am 9 13 mph 1022.8mb 59f 53f
11:12am 10 16 mph 1022.8mb 60f 53f
11:06am 10 15 mph 1023mb 60f 53f
11:00am 10 13 mph 1022.8mb 60f 53f
10:54am 9 14 mph 1022.8mb 60f 53f
10:48am 7 14 mph 1022.9mb 60f 53f
10:42am 10 17 mph 1023.1mb 60f 53f
10:36am 13 16 mph 1023mb 60f 53f
10:30am 13 17 mph 1022.8mb 60f 53f
10:24am 13 20 mph 1023mb 60f 53f
10:18am 13 20 mph 1022.9mb 60f 53f
10:12am 10 18 mph 1023.2mb 59f 53f
10:06am 13 17 mph 1023.2mb 59f 53f
10:00am 15 21 mph 1023.2mb 59f 53f
9:54am 14 20 mph 1023.1mb 58f 53f
9:48am 14 21 mph 1023.2mb 58f 53f
9:42am 14 20 mph 1023.1mb 58f 53f
9:36am 14 20 mph 1023.1mb 58f 53f
9:30am 14 18 mph 1022.9mb 58f 53f
9:24am 10 17 mph 1022.9mb 57f 53f
9:18am 11 15 mph 1023mb 58f 53f
9:12am 10 17 mph 1022.9mb 59f 53f
9:06am 15 18 mph 1022.9mb 59f 53f
9:00am 13 21 mph 1022.9mb 60f 53f
8:48am 13 22 mph 1022.7mb 60f 53f
8:42am 17 23 mph 1022.5mb 60f 53f
8:36am 18 22 mph 1022.6mb 60f 53f
8:30am 20 24 mph 1022.5mb 60f 53f
8:24am 18 23 mph 1022.4mb 60f 53f
8:18am 17 22 mph 1022.4mb 60f 54f
8:12am 15 17 mph 1022mb 60f 53f
8:06am 9 13 mph 1022.1mb 59f 54f
8:00am 8 13 mph 1022mb 58f 54f
7:54am 9 11 mph 1021.8mb 59f 54f
7:48am 9 14 mph 1021.9mb 59f 54f
7:42am 9 13 mph 1021.6mb 59f 54f
7:36am 9 13 mph 1021.6mb 60f 54f
7:30am 10 14 mph 1021.3mb 60f 54f
7:24am 11 14 mph 1021.4mb 60f 54f
7:18am 11 18 mph 1021.4mb 60f 54f
7:12am 10 14 mph 1021.2mb 60f 55f
7:06am 10 14 mph 1021mb 60f 54f
7:00am 9 13 mph 1021.2mb 60f 53f
6:54am 7 13 mph 1021mb 60f 53f
6:48am 8 13 mph 1020.9mb 60f 54f
6:42am 11 15 mph 1020.6mb 60f 54f
6:36am 7 11 mph 1020.5mb 60f 54f
6:30am 10 14 mph 1020.7mb 60f 55f
6:24am 10 14 mph 1020.6mb 60f 55f
6:18am 9 15 mph 1020.5mb 61f 55f